Bookmark and Share
Track history (hours):
 

Ladore

Last reported at 2014-Apr-18 15:33 UTC. Time now 2014-Apr-19 07:03 UTC.
Position N 41°15' E 001°55'.

Length 17 m.

Type: Sailing vessel. MMSI: 269102720.

NotesDate/timePositionNaut miles runAvg speedWind from/ knotsBaromVisibWave heightAir tempDewpointWater temp
2014-Apr-18 15:33N 41°15' E 001°55'17 7.4
2014-Apr-18 13:18N 41°02' E 002°09'6 7.9
2014-Apr-18 12:32N 40°57' E 002°14'10 8.1
2014-Apr-18 11:19N 40°49' E 002°21'7 7.9
2014-Apr-18 10:24N 40°44' E 002°27'6 6.7
2014-Apr-18 09:33N 40°39' E 002°32'6 6.3
2014-Apr-18 08:32N 40°34' E 002°37'7 7.4
2014-Apr-18 07:33N 40°28' E 002°43'7 7.0
2014-Apr-18 06:33N 40°23' E 002°48'8 7.6
2014-Apr-18 05:33N 40°17' E 002°54'8 7.5
2014-Apr-18 04:33N 40°11' E 003°00'23 0.6
2014-Apr-16 14:05N 39°52' E 003°16'37 1.2
2014-Apr-15 08:34N 39°18' E 002°57'13 0.6
2014-Apr-14 10:33N 39°23' E 002°42'7 6.6
2014-Apr-14 09:33N 39°25' E 002°34'6 6.4
2014-Apr-14 08:33N 39°28' E 002°27'18 0.8
2014-Apr-13 11:18N 39°45' E 002°35'4 5.8
2014-Apr-13 10:33N 39°47' E 002°39'2 1.6
2014-Apr-13 09:31N 39°48' E 002°42'  
2014-Apr-09 18:32N 39°48' E 002°42'0 0.0
2014-Apr-09 17:32N 39°48' E 002°42'0 0.0
2014-Apr-09 16:26N 39°48' E 002°42'0 0.0
2014-Apr-09 15:32N 39°48' E 002°42'0 0.0
2014-Apr-09 14:32N 39°48' E 002°42'0 0.0
2014-Apr-09 13:32N 39°48' E 002°42'0 0.0
2014-Apr-09 12:32N 39°48' E 002°42'0 0.0
2014-Apr-09 11:26N 39°48' E 002°42'0 0.0
2014-Apr-09 10:32N 39°48' E 002°42'0 0.0
2014-Apr-09 09:32N 39°48' E 002°42'0 0.0
2014-Apr-09 08:26N 39°48' E 002°42'0 0.0
2014-Apr-09 07:26N 39°48' E 002°42'0 0.0
2014-Apr-09 06:32N 39°48' E 002°42'0 0.0
2014-Apr-09 05:32N 39°48' E 002°42'0 0.0
2014-Apr-09 04:32N 39°48' E 002°42'0 0.0
2014-Apr-09 03:32N 39°48' E 002°42'0 0.0
2014-Apr-09 02:32N 39°48' E 002°42'0 0.0
2014-Apr-09 01:32N 39°48' E 002°42'0 0.0
2014-Apr-09 00:32N 39°48' E 002°42'0 0.0
2014-Apr-08 23:29N 39°48' E 002°42'0 0.0
2014-Apr-08 22:32N 39°48' E 002°42'0 0.0
2014-Apr-08 21:32N 39°48' E 002°42'0 0.0
2014-Apr-08 20:29N 39°48' E 002°42'0 0.0
2014-Apr-08 19:32N 39°48' E 002°42'0 0.0
2014-Apr-08 18:33N 39°48' E 002°42'3 2.9
2014-Apr-08 17:33N 39°50' E 002°40'8 7.9
2014-Apr-08 16:34N 39°57' E 002°36'8 7.8
2014-Apr-08 15:34N 40°05' E 002°32'  

Dump ship's entire track history

sailing weather and tide predictions

Ladore — HBY4456 — position and weather